Time;durP1;ratioP1;P1;durP2;ratioP2;P2;SDS_P1;SDS_P2;PMS_P1;PMS_P2;Temp;Humidity;BMP_temperature;BMP_pressure;BME280_temperature;BME280_humidity;BME280_pressure;Samples;Min_cycle;Max_cycle;Signal;HPM_P1;HPM_P2
2021/03/23 00:01:15;;;;;;;5.53;4.40;;;;;;;;;;5013482;28;20948;-51
2021/03/23 00:03:45;;;;;;;7.43;4.20;;;;;;;;;;5014687;28;20220;-52
2021/03/23 00:06:16;;;;;;;4.93;4.00;;;;;;;;;;5014816;28;20899;-51
2021/03/23 00:08:45;;;;;;;4.60;3.97;;;;;;;;;;5014446;28;20396;-54
2021/03/23 00:11:14;;;;;;;3.95;3.65;;;;;;;;;;5014447;28;20226;-51
2021/03/23 00:13:41;;;;;;;4.30;3.87;;;;;;;;;;5013400;28;20345;-51
2021/03/23 00:16:07;;;;;;;4.33;3.97;;;;;;;;;;5014564;28;20403;-51
2021/03/23 00:18:34;;;;;;;3.80;3.60;;;;;;;;;;5014295;28;20404;-51
2021/03/23 00:21:00;;;;;;;5.53;3.80;;;;;;;;;;5014588;28;20189;-51
2021/03/23 00:23:26;;;;;;;4.35;3.92;;;;;;;;;;5014663;28;20180;-51
2021/03/23 00:25:52;;;;;;;5.47;4.97;;;;;;;;;;5014607;28;20594;-51
2021/03/23 00:28:20;;;;;;;4.72;4.30;;;;;;;;;;5014262;28;20766;-50
2021/03/23 00:30:46;;;;;;;6.87;6.20;;;;;;;;;;5013598;28;20223;-51
2021/03/23 00:33:12;;;;;;;7.27;5.83;;;;;;;;;;5014397;28;20883;-51
2021/03/23 00:35:38;;;;;;;7.23;5.93;;;;;;;;;;5014810;28;20950;-50
2021/03/23 00:38:05;;;;;;;6.43;5.70;;;;;;;;;;5014060;28;20765;-51
2021/03/23 00:40:33;;;;;;;8.10;6.38;;;;;;;;;;5013873;28;20424;-53
2021/03/23 00:43:00;;;;;;;8.97;6.20;;;;;;;;;;5014006;28;20223;-50
2021/03/23 00:45:26;;;;;;;6.43;5.82;;;;;;;;;;5013962;28;20515;-51
2021/03/23 00:47:53;;;;;;;7.60;6.60;;;;;;;;;;5013771;28;20657;-50
2021/03/23 00:50:19;;;;;;;6.68;5.47;;;;;;;;;;5013659;28;20411;-51
2021/03/23 00:52:46;;;;;;;9.15;5.82;;;;;;;;;;5013840;28;20183;-51
2021/03/23 00:55:12;;;;;;;7.25;5.82;;;;;;;;;;5013673;28;20842;-53
2021/03/23 00:57:38;;;;;;;6.97;6.28;;;;;;;;;;5013540;28;20295;-51
2021/03/23 01:00:08;;;;;;;6.70;6.10;;;;;;;;;;5012521;28;20264;-51
2021/03/23 01:02:34;;;;;;;9.50;6.32;;;;;;;;;;5013575;28;20424;-54
2021/03/23 01:05:00;;;;;;;9.87;6.37;;;;;;;;;;5013604;28;20189;-53
2021/03/23 01:07:26;;;;;;;6.63;6.03;;;;;;;;;;5013266;28;20403;-54
2021/03/23 01:09:52;;;;;;;7.63;6.50;;;;;;;;;;5013334;28;20546;-51
2021/03/23 01:12:18;;;;;;;9.05;6.38;;;;;;;;;;5012645;28;20431;-50
2021/03/23 01:14:44;;;;;;;10.23;6.32;;;;;;;;;;5013351;28;20207;-50
2021/03/23 01:17:10;;;;;;;8.47;6.17;;;;;;;;;;5013308;28;20166;-51
2021/03/23 01:19:37;;;;;;;8.27;7.35;;;;;;;;;;5013114;28;20401;-51
2021/03/23 01:22:03;;;;;;;10.68;6.50;;;;;;;;;;5013122;28;20224;-51
2021/03/23 01:24:29;;;;;;;9.65;6.78;;;;;;;;;;5013266;28;20653;-53
2021/03/23 01:26:55;;;;;;;9.75;6.43;;;;;;;;;;5013393;28;20557;-50
2021/03/23 01:29:21;;;;;;;11.83;6.37;;;;;;;;;;5012967;28;20166;-51
2021/03/23 01:31:47;;;;;;;12.40;6.53;;;;;;;;;;5012013;28;20489;-51
2021/03/23 01:34:13;;;;;;;8.77;6.67;;;;;;;;;;5012986;28;20447;-51
2021/03/23 01:36:39;;;;;;;10.15;6.65;;;;;;;;;;5012860;28;20404;-51
2021/03/23 01:39:05;;;;;;;7.60;6.80;;;;;;;;;;5012661;28;20169;-51
2021/03/23 01:41:31;;;;;;;9.00;6.80;;;;;;;;;;5012849;28;20539;-51
2021/03/23 01:43:57;;;;;;;6.78;5.43;;;;;;;;;;5013077;28;20801;-50
2021/03/23 01:46:39;;;;;;;9.33;6.87;;;;;;;;;;5012829;28;20164;-51
2021/03/23 01:49:07;;;;;;;9.70;7.33;;;;;;;;;;5012477;28;20468;-51
2021/03/23 01:51:33;;;;;;;8.10;6.82;;;;;;;;;;5012648;28;20428;-50
2021/03/23 01:54:02;;;;;;;13.40;6.60;;;;;;;;;;5012575;28;20195;-50
2021/03/23 01:56:28;;;;;;;8.18;6.43;;;;;;;;;;5012712;28;20399;-51
2021/03/23 01:58:55;;;;;;;7.05;6.25;;;;;;;;;;5012271;28;20172;-51
2021/03/23 02:01:21;;;;;;;8.20;6.30;;;;;;;;;;5011302;28;20221;-53
2021/03/23 02:03:48;;;;;;;10.20;6.82;;;;;;;;;;5011693;28;20906;-51
2021/03/23 02:06:33;;;;;;;10.13;6.93;;;;;;;;;;5011926;28;20179;-54
2021/03/23 02:09:00;;;;;;;8.02;6.85;;;;;;;;;;5011595;28;20474;-50
2021/03/23 02:11:26;;;;;;;8.88;7.18;;;;;;;;;;5012264;28;20631;-51
2021/03/23 02:13:53;;;;;;;11.80;7.20;;;;;;;;;;5012048;28;20185;-50
2021/03/23 02:16:19;;;;;;;12.75;8.38;;;;;;;;;;5012251;28;20168;-54
2021/03/23 02:18:45;;;;;;;9.45;6.90;;;;;;;;;;5011871;28;20196;-54
2021/03/23 02:21:13;;;;;;;10.77;7.80;;;;;;;;;;5012193;28;20216;-54
2021/03/23 02:23:46;;;;;;;10.65;7.70;;;;;;;;;;5011169;28;20405;-51
2021/03/23 02:26:17;;;;;;;12.02;7.85;;;;;;;;;;5012129;28;20640;-50
2021/03/23 02:28:52;;;;;;;15.63;8.48;;;;;;;;;;5011758;28;20196;-53
2021/03/23 02:31:20;;;;;;;11.25;8.00;;;;;;;;;;5010957;28;20199;-50
2021/03/23 02:33:46;;;;;;;11.95;8.50;;;;;;;;;;5012079;28;20161;-53
2021/03/23 02:36:12;;;;;;;10.50;8.57;;;;;;;;;;5012078;28;20170;-53
2021/03/23 02:38:38;;;;;;;9.13;7.40;;;;;;;;;;5011830;28;20437;-55
2021/03/23 02:41:04;;;;;;;12.90;9.43;;;;;;;;;;5011750;28;20531;-56
2021/03/23 02:43:30;;;;;;;12.13;8.57;;;;;;;;;;5012192;28;20388;-50
2021/03/23 02:45:56;;;;;;;13.00;9.77;;;;;;;;;;5012092;28;20406;-50
2021/03/23 02:48:22;;;;;;;11.50;8.77;;;;;;;;;;5011683;28;20405;-52
2021/03/23 02:50:48;;;;;;;14.93;8.95;;;;;;;;;;5011695;28;20423;-52
2021/03/23 02:53:15;;;;;;;10.07;8.20;;;;;;;;;;5011843;28;20637;-54
2021/03/23 02:55:41;;;;;;;13.60;9.10;;;;;;;;;;5011478;28;20462;-53
2021/03/23 02:58:09;;;;;;;14.03;8.83;;;;;;;;;;5011480;28;20169;-55
2021/03/23 03:00:35;;;;;;;13.60;8.67;;;;;;;;;;5010540;28;20470;-50
2021/03/23 03:03:01;;;;;;;13.47;8.70;;;;;;;;;;5010731;28;20969;-50
2021/03/23 03:05:27;;;;;;;13.23;8.70;;;;;;;;;;5011408;28;20891;-50
2021/03/23 03:07:53;;;;;;;12.70;8.33;;;;;;;;;;5011172;28;20404;-50
2021/03/23 03:10:19;;;;;;;10.97;8.50;;;;;;;;;;5011200;28;20818;-51
2021/03/23 03:12:45;;;;;;;14.93;9.57;;;;;;;;;;5011219;28;20412;-51
2021/03/23 03:15:12;;;;;;;12.87;8.80;;;;;;;;;;5011187;28;20799;-50
2021/03/23 03:17:38;;;;;;;16.70;10.37;;;;;;;;;;5011005;28;20400;-50
2021/03/23 03:20:07;;;;;;;13.83;9.93;;;;;;;;;;5011218;28;20407;-50
2021/03/23 03:22:33;;;;;;;12.80;10.13;;;;;;;;;;5010999;28;20423;-51
2021/03/23 03:25:00;;;;;;;16.67;12.07;;;;;;;;;;5009815;28;20188;-50
2021/03/23 03:27:25;;;;;;;18.75;11.90;;;;;;;;;;5009682;28;20399;-50
2021/03/23 03:29:51;;;;;;;14.50;10.40;;;;;;;;;;5011100;28;20175;-50
2021/03/23 03:32:18;;;;;;;21.63;10.80;;;;;;;;;;5010032;28;20549;-52
2021/03/23 03:34:44;;;;;;;21.20;11.38;;;;;;;;;;5010631;28;20550;-51
2021/03/23 03:37:10;;;;;;;15.30;11.30;;;;;;;;;;5010933;28;20275;-52
2021/03/23 03:39:35;;;;;;;15.85;11.93;;;;;;;;;;5009797;28;20442;-52
2021/03/23 03:42:01;;;;;;;18.53;11.13;;;;;;;;;;5010829;28;20328;-53
2021/03/23 03:44:27;;;;;;;17.47;12.10;;;;;;;;;;5010954;28;20410;-53
2021/03/23 03:46:53;;;;;;;18.10;12.47;;;;;;;;;;5010041;28;20466;-52
2021/03/23 03:49:19;;;;;;;21.23;12.50;;;;;;;;;;5010636;28;20408;-53
2021/03/23 03:51:45;;;;;;;20.83;14.33;;;;;;;;;;5010857;28;20428;-50
2021/03/23 03:54:11;;;;;;;20.07;13.83;;;;;;;;;;5010830;28;20560;-50
2021/03/23 03:56:37;;;;;;;18.10;12.77;;;;;;;;;;5010855;28;20396;-50
2021/03/23 03:59:03;;;;;;;18.00;13.00;;;;;;;;;;5010638;28;20907;-50
2021/03/23 04:01:29;;;;;;;24.75;14.68;;;;;;;;;;5010863;28;20420;-50
2021/03/23 04:03:55;;;;;;;21.83;14.37;;;;;;;;;;5010783;28;20179;-50
2021/03/23 04:06:21;;;;;;;21.33;14.80;;;;;;;;;;5010911;28;20451;-50
2021/03/23 04:08:47;;;;;;;21.70;14.43;;;;;;;;;;5008828;28;20497;-50
2021/03/23 04:11:13;;;;;;;21.33;14.30;;;;;;;;;;5010758;28;20656;-50
2021/03/23 04:13:39;;;;;;;22.40;15.63;;;;;;;;;;5010700;28;20391;-50
2021/03/23 04:16:06;;;;;;;23.13;14.63;;;;;;;;;;5010855;28;20193;-50
2021/03/23 04:18:32;;;;;;;23.60;14.70;;;;;;;;;;5010513;28;20399;-50
2021/03/23 04:20:59;;;;;;;22.17;15.40;;;;;;;;;;5010592;28;20424;-50
2021/03/23 04:23:34;;;;;;;19.70;14.53;;;;;;;;;;5010593;28;20483;-52
2021/03/23 04:26:00;;;;;;;22.20;14.20;;;;;;;;;;5010547;28;20442;-51
2021/03/23 04:28:26;;;;;;;21.33;13.75;;;;;;;;;;5010515;28;20451;-50
2021/03/23 04:30:52;;;;;;;20.88;14.05;;;;;;;;;;5010480;28;20197;-50
2021/03/23 04:33:20;;;;;;;20.30;13.73;;;;;;;;;;5009923;28;20184;-50
2021/03/23 04:35:53;;;;;;;26.80;15.95;;;;;;;;;;5010423;28;20192;-50
2021/03/23 04:38:27;;;;;;;26.63;14.63;;;;;;;;;;5010071;28;20172;-54
2021/03/23 04:40:54;;;;;;;24.17;15.10;;;;;;;;;;5010226;28;20181;-51
2021/03/23 04:43:23;;;;;;;24.10;16.30;;;;;;;;;;5010475;28;20642;-53
2021/03/23 04:45:49;;;;;;;22.33;14.45;;;;;;;;;;5010328;28;20175;-50
2021/03/23 04:48:15;;;;;;;24.77;14.80;;;;;;;;;;5012633;28;20561;-53
2021/03/23 04:50:41;;;;;;;22.90;15.55;;;;;;;;;;5013681;28;20192;-55
2021/03/23 04:53:07;;;;;;;22.63;14.38;;;;;;;;;;5013851;28;20176;-53
2021/03/23 04:55:33;;;;;;;23.95;15.20;;;;;;;;;;5013758;28;20227;-50
2021/03/23 04:57:59;;;;;;;21.33;14.97;;;;;;;;;;5013536;28;20227;-50
2021/03/23 05:00:25;;;;;;;23.97;15.30;;;;;;;;;;5013571;28;20405;-50
2021/03/23 05:02:51;;;;;;;26.00;14.23;;;;;;;;;;5012540;28;20913;-50
2021/03/23 05:05:17;;;;;;;19.98;14.65;;;;;;;;;;5013594;28;20188;-50
2021/03/23 05:07:43;;;;;;;22.93;14.60;;;;;;;;;;5013263;28;20512;-51
2021/03/23 05:10:11;;;;;;;23.40;16.30;;;;;;;;;;5013510;28;20412;-51
2021/03/23 05:12:37;;;;;;;23.10;16.27;;;;;;;;;;5013467;28;20539;-54
2021/03/23 05:15:03;;;;;;;30.50;16.35;;;;;;;;;;5013388;28;20196;-51
2021/03/23 05:17:29;;;;;;;28.45;17.60;;;;;;;;;;5013169;28;20599;-53
2021/03/23 05:19:55;;;;;;;26.10;15.47;;;;;;;;;;5013243;28;20168;-50
2021/03/23 05:22:21;;;;;;;31.60;16.97;;;;;;;;;;5013157;28;20415;-51
2021/03/23 05:24:47;;;;;;;24.33;16.57;;;;;;;;;;5013293;28;20442;-51
2021/03/23 05:27:13;;;;;;;24.60;16.40;;;;;;;;;;5013231;28;20419;-52
2021/03/23 05:29:39;;;;;;;26.93;16.87;;;;;;;;;;5012878;28;20905;-52
2021/03/23 05:32:05;;;;;;;28.30;17.20;;;;;;;;;;5013038;28;20424;-53
2021/03/23 05:34:31;;;;;;;25.00;16.27;;;;;;;;;;5012004;28;20460;-52
2021/03/23 05:36:57;;;;;;;26.80;16.87;;;;;;;;;;5012977;28;20488;-54
2021/03/23 05:39:23;;;;;;;23.97;17.00;;;;;;;;;;5012614;28;20896;-50
2021/03/23 05:42:08;;;;;;;28.87;16.23;;;;;;;;;;5012790;28;20955;-50
2021/03/23 05:44:46;;;;;;;24.25;15.30;;;;;;;;;;5012901;28;20400;-56
2021/03/23 05:47:14;;;;;;;26.95;17.08;;;;;;;;;;5012883;28;20254;-55
2021/03/23 05:49:52;;;;;;;29.15;15.85;;;;;;;;;;5012505;28;20173;-50
2021/03/23 05:52:21;;;;;;;28.13;17.90;;;;;;;;;;5012843;28;20197;-50
2021/03/23 05:54:56;;;;;;;29.25;17.08;;;;;;;;;;5012731;28;20453;-54
2021/03/23 05:57:25;;;;;;;30.85;17.58;;;;;;;;;;5012664;28;20297;-50
2021/03/23 05:59:59;;;;;;;23.97;17.60;;;;;;;;;;5012569;28;20164;-51
2021/03/23 06:02:48;;;;;;;31.00;17.45;;;;;;;;;;5012652;28;20412;-52
2021/03/23 06:05:24;;;;;;;29.98;16.92;;;;;;;;;;5008518;28;20200;-50
2021/03/23 06:07:51;;;;;;;25.80;16.07;;;;;;;;;;5012312;28;20200;-50
2021/03/23 06:10:18;;;;;;;25.50;16.67;;;;;;;;;;5012301;28;20881;-50
2021/03/23 06:12:49;;;;;;;26.10;16.30;;;;;;;;;;5012567;28;20407;-50
2021/03/23 06:15:20;;;;;;;29.25;16.90;;;;;;;;;;5012211;28;20466;-53
2021/03/23 06:17:57;;;;;;;27.00;16.80;;;;;;;;;;5012169;28;20203;-50
2021/03/23 06:20:28;;;;;;;25.90;17.38;;;;;;;;;;5011995;28;20165;-54
2021/03/23 06:23:00;;;;;;;25.25;15.05;;;;;;;;;;5012265;28;20215;-53
2021/03/23 06:25:37;;;;;;;21.43;14.67;;;;;;;;;;5012175;28;20310;-51
2021/03/23 06:28:12;;;;;;;23.37;15.33;;;;;;;;;;5011959;28;20897;-52
2021/03/23 06:30:51;;;;;;;24.57;15.23;;;;;;;;;;5011976;28;20424;-51
2021/03/23 06:33:20;;;;;;;28.10;16.73;;;;;;;;;;5011401;28;20843;-50
2021/03/23 06:35:47;;;;;;;24.80;15.27;;;;;;;;;;5020437;28;20534;-52
2021/03/23 06:38:24;;;;;;;29.00;16.40;;;;;;;;;;5022732;28;20169;-54
2021/03/23 06:41:08;;;;;;;22.43;16.00;;;;;;;;;;5022902;28;20447;-53
2021/03/23 06:43:34;;;;;;;26.03;16.67;;;;;;;;;;5023480;28;20407;-53
2021/03/23 06:46:01;;;;;;;25.20;15.60;;;;;;;;;;5022931;28;20427;-52
2021/03/23 06:48:29;;;;;;;27.30;16.00;;;;;;;;;;5022899;28;20412;-54
2021/03/23 06:51:10;;;;;;;26.73;16.30;;;;;;;;;;5023234;28;20216;-53
2021/03/23 06:53:37;;;;;;;25.63;16.13;;;;;;;;;;5022979;28;20434;-52
2021/03/23 06:56:20;;;;;;;26.03;15.90;;;;;;;;;;5022333;28;20541;-53
2021/03/23 06:58:46;;;;;;;31.40;16.70;;;;;;;;;;5021432;28;20409;-53
2021/03/23 07:01:16;;;;;;;24.00;15.60;;;;;;;;;;5020971;28;20425;-51
2021/03/23 07:03:43;;;;;;;28.33;15.70;;;;;;;;;;5020800;28;20424;-52
2021/03/23 07:06:20;;;;;;;25.65;16.00;;;;;;;;;;5022246;28;20439;-53
2021/03/23 07:09:04;;;;;;;28.05;17.95;;;;;;;;;;5019856;28;20173;-52
2021/03/23 07:11:48;;;;;;;27.67;16.87;;;;;;;;;;5022017;28;20203;-53
2021/03/23 07:14:21;;;;;;;28.90;17.37;;;;;;;;;;5022196;28;20539;-52
2021/03/23 07:16:48;;;;;;;29.87;17.10;;;;;;;;;;5021402;28;20473;-53
2021/03/23 07:19:14;;;;;;;29.50;18.08;;;;;;;;;;5020582;28;20400;-53
2021/03/23 07:21:43;;;;;;;29.03;19.00;;;;;;;;;;5020973;28;20216;-51
2021/03/23 07:24:11;;;;;;;33.47;17.47;;;;;;;;;;5020940;28;20412;-53
2021/03/23 07:26:39;;;;;;;27.23;17.47;;;;;;;;;;5021068;28;20497;-52
2021/03/23 07:29:12;;;;;;;24.40;17.47;;;;;;;;;;5019039;28;20910;-52
2021/03/23 07:31:41;;;;;;;28.10;17.90;;;;;;;;;;5020955;28;20431;-53
2021/03/23 07:34:13;;;;;;;30.30;17.87;;;;;;;;;;5019997;28;20467;-53
2021/03/23 07:36:42;;;;;;;28.73;18.60;;;;;;;;;;5021440;28;20412;-54
2021/03/23 07:39:12;;;;;;;27.43;17.87;;;;;;;;;;5021100;28;20404;-52
2021/03/23 07:41:43;;;;;;;32.73;18.03;;;;;;;;;;5020838;28;20432;-53
2021/03/23 07:44:17;;;;;;;28.70;18.40;;;;;;;;;;5021164;28;20415;-52
2021/03/23 07:46:45;;;;;;;31.58;18.20;;;;;;;;;;5021432;28;20408;-52
2021/03/23 07:49:20;;;;;;;31.27;16.90;;;;;;;;;;5021741;28;20224;-54
2021/03/23 07:51:51;;;;;;;32.83;18.37;;;;;;;;;;5020002;28;20824;-53
2021/03/23 07:54:34;;;;;;;26.80;17.53;;;;;;;;;;5019215;28;20485;-53
2021/03/23 07:57:00;;;;;;;30.53;18.47;;;;;;;;;;5016648;28;20429;-51
2021/03/23 07:59:34;;;;;;;29.50;18.80;;;;;;;;;;5009568;28;20433;-50
2021/03/23 08:02:19;;;;;;;29.53;16.80;;;;;;;;;;5009686;28;20422;-54
2021/03/23 08:05:03;;;;;;;45.43;19.93;;;;;;;;;;5007496;28;20440;-50
2021/03/23 08:07:33;;;;;;;32.67;17.73;;;;;;;;;;5009665;28;20421;-50
2021/03/23 08:10:14;;;;;;;34.20;19.73;;;;;;;;;;5010304;28;20471;-50
2021/03/23 08:12:59;;;;;;;36.30;20.00;;;;;;;;;;5010374;28;20452;-53
2021/03/23 08:15:43;;;;;;;30.43;19.00;;;;;;;;;;5010539;28;20470;-50
2021/03/23 08:18:21;;;;;;;33.53;18.97;;;;;;;;;;5010153;28;20395;-53
2021/03/23 08:20:47;;;;;;;33.60;19.60;;;;;;;;;;5010839;28;20419;-51
2021/03/23 08:23:16;;;;;;;30.43;19.63;;;;;;;;;;5014254;28;20412;-53
2021/03/23 08:25:45;;;;;;;28.60;19.80;;;;;;;;;;5014359;28;20417;-50
2021/03/23 08:28:27;;;;;;;33.23;20.30;;;;;;;;;;5014023;28;20413;-50
2021/03/23 08:30:56;;;;;;;29.67;19.97;;;;;;;;;;5014203;28;20480;-51
2021/03/23 08:33:33;;;;;;;38.53;19.07;;;;;;;;;;5012923;28;20410;-53
2021/03/23 08:36:08;;;;;;;36.47;19.60;;;;;;;;;;5014109;28;20454;-51
2021/03/23 08:38:44;;;;;;;35.10;20.77;;;;;;;;;;5013802;28;20406;-52
2021/03/23 08:41:16;;;;;;;34.10;19.27;;;;;;;;;;5013899;28;20521;-50
2021/03/23 08:43:43;;;;;;;29.30;19.30;;;;;;;;;;5014028;28;20394;-50
2021/03/23 08:46:14;;;;;;;40.30;19.90;;;;;;;;;;5013747;28;20406;-53
2021/03/23 08:48:40;;;;;;;33.07;19.50;;;;;;;;;;5013646;28;20397;-52
2021/03/23 08:51:08;;;;;;;34.43;20.77;;;;;;;;;;5013822;28;20427;-52
2021/03/23 08:53:34;;;;;;;37.73;21.00;;;;;;;;;;5013934;28;20403;-54
2021/03/23 08:56:05;;;;;;;46.67;21.67;;;;;;;;;;5013560;28;20462;-53
2021/03/23 08:58:49;;;;;;;33.43;20.70;;;;;;;;;;5013430;28;20408;-52
2021/03/23 09:01:31;;;;;;;32.40;20.03;;;;;;;;;;5013606;28;20414;-53
2021/03/23 09:04:03;;;;;;;35.77;20.10;;;;;;;;;;5012696;28;21690;-51
2021/03/23 09:06:46;;;;;;;33.57;19.03;;;;;;;;;;5013483;28;20838;-53
2021/03/23 09:09:20;;;;;;;31.23;18.00;;;;;;;;;;5013188;28;20878;-50
2021/03/23 09:12:04;;;;;;;29.13;20.70;;;;;;;;;;5007754;28;20951;-51
2021/03/23 09:14:32;;;;;;;28.20;19.47;;;;;;;;;;5012649;28;20437;-51
2021/03/23 09:16:59;;;;;;;31.67;20.80;;;;;;;;;;5013371;28;20762;-52
2021/03/23 09:19:36;;;;;;;30.60;19.63;;;;;;;;;;5013035;28;20460;-53
2021/03/23 09:22:02;;;;;;;29.57;19.73;;;;;;;;;;5013482;28;20410;-52
2021/03/23 09:24:28;;;;;;;29.73;20.70;;;;;;;;;;5016395;28;20430;-53
2021/03/23 09:26:54;;;;;;;36.13;22.10;;;;;;;;;;5022396;28;20403;-54
2021/03/23 09:29:34;;;;;;;30.53;20.43;;;;;;;;;;5022163;28;20794;-53
2021/03/23 09:32:06;;;;;;;32.20;22.00;;;;;;;;;;5022574;28;20494;-54
2021/03/23 09:34:51;;;;;;;29.40;20.00;;;;;;;;;;5019030;28;21002;-53
2021/03/23 09:37:43;;;;;;;32.70;19.83;;;;;;;;;;5019348;28;20381;-51
2021/03/23 09:40:22;;;;;;;29.13;19.90;;;;;;;;;;5015032;28;20382;-54
2021/03/23 09:42:49;;;;;;;35.03;21.23;;;;;;;;;;5018291;28;20394;-53
2021/03/23 09:45:14;;;;;;;31.40;20.73;;;;;;;;;;5013139;28;20414;-52
2021/03/23 09:47:50;;;;;;;32.40;23.07;;;;;;;;;;5011736;28;20390;-52
2021/03/23 09:50:31;;;;;;;33.43;21.97;;;;;;;;;;4999706;28;20746;-54
2021/03/23 09:53:01;;;;;;;32.63;22.17;;;;;;;;;;5013007;28;20403;-55
2021/03/23 09:55:31;;;;;;;32.90;22.27;;;;;;;;;;5006275;28;20441;-54
2021/03/23 09:57:57;;;;;;;27.00;21.53;;;;;;;;;;5002694;28;20377;-54
2021/03/23 10:00:25;;;;;;;37.83;23.47;;;;;;;;;;5000981;28;20413;-54
2021/03/23 10:02:51;;;;;;;41.13;21.40;;;;;;;;;;5001793;28;20412;-53
2021/03/23 10:05:25;;;;;;;32.80;22.33;;;;;;;;;;5003977;28;21122;-53
2021/03/23 10:07:52;;;;;;;36.20;22.60;;;;;;;;;;4998992;28;20436;-53
2021/03/23 10:10:29;;;;;;;34.70;20.50;;;;;;;;;;5001181;28;20381;-54
2021/03/23 10:12:59;;;;;;;33.00;22.87;;;;;;;;;;4995870;28;20397;-55
2021/03/23 10:15:32;;;;;;;34.80;21.70;;;;;;;;;;5003539;28;20440;-53
2021/03/23 10:18:12;;;;;;;34.80;21.37;;;;;;;;;;5005865;28;20393;-54
2021/03/23 10:20:38;;;;;;;39.30;23.40;;;;;;;;;;5002108;28;20399;-53
2021/03/23 10:23:05;;;;;;;34.73;22.30;;;;;;;;;;5000523;28;20447;-54
2021/03/23 10:25:31;;;;;;;30.93;21.57;;;;;;;;;;5001104;28;20416;-54
2021/03/23 10:28:04;;;;;;;33.53;21.20;;;;;;;;;;4998437;28;20411;-54
2021/03/23 10:30:36;;;;;;;29.27;20.30;;;;;;;;;;5000088;28;20418;-54
2021/03/23 10:33:37;;;;;;;29.37;21.30;;;;;;;;;;5002846;28;20411;-54
2021/03/23 10:36:05;;;;;;;28.70;20.43;;;;;;;;;;4982113;28;20483;-54
2021/03/23 10:38:33;;;;;;;28.63;20.17;;;;;;;;;;4997702;28;20795;-55
2021/03/23 10:41:00;;;;;;;28.50;18.27;;;;;;;;;;5003374;28;20519;-54
2021/03/23 10:43:41;;;;;;;30.13;19.10;;;;;;;;;;5001575;28;20411;-53
2021/03/23 10:46:26;;;;;;;26.43;19.93;;;;;;;;;;5001007;28;20486;-53
2021/03/23 10:48:52;;;;;;;31.17;20.93;;;;;;;;;;5002091;28;20400;-54
2021/03/23 10:51:23;;;;;;;27.57;17.83;;;;;;;;;;5000412;28;20450;-53
2021/03/23 10:53:58;;;;;;;22.17;16.87;;;;;;;;;;5000968;28;20490;-53
2021/03/23 10:56:28;;;;;;;23.87;16.03;;;;;;;;;;5000591;28;20412;-55
2021/03/23 10:59:12;;;;;;;19.00;16.07;;;;;;;;;;5007631;28;20843;-55
2021/03/23 11:01:55;;;;;;;24.07;16.50;;;;;;;;;;5002083;28;20992;-53
2021/03/23 11:04:22;;;;;;;23.23;15.23;;;;;;;;;;4994709;28;20896;-54
2021/03/23 11:06:48;;;;;;;22.30;15.70;;;;;;;;;;5000321;28;20855;-54
2021/03/23 11:09:17;;;;;;;22.43;16.50;;;;;;;;;;4996274;28;20495;-54
2021/03/23 11:11:43;;;;;;;23.97;16.10;;;;;;;;;;4993876;28;20426;-54
2021/03/23 11:14:09;;;;;;;19.93;15.70;;;;;;;;;;4991660;28;20396;-54
2021/03/23 11:16:36;;;;;;;22.40;16.20;;;;;;;;;;4991830;28;20415;-54
2021/03/23 11:19:03;;;;;;;23.47;16.63;;;;;;;;;;4997366;28;20795;-54
2021/03/23 11:21:40;;;;;;;22.20;16.50;;;;;;;;;;5009852;28;20799;-54
2021/03/23 11:24:07;;;;;;;24.23;16.80;;;;;;;;;;5009570;28;20410;-54
2021/03/23 11:26:34;;;;;;;20.90;15.77;;;;;;;;;;5009890;28;20545;-54
2021/03/23 11:29:04;;;;;;;24.87;15.57;;;;;;;;;;5010267;28;20407;-54
2021/03/23 11:31:30;;;;;;;21.60;16.40;;;;;;;;;;5010884;28;20429;-54
2021/03/23 11:33:59;;;;;;;19.83;15.40;;;;;;;;;;5010908;28;20786;-54
2021/03/23 11:36:26;;;;;;;22.23;15.67;;;;;;;;;;5010279;28;20403;-53
2021/03/23 11:38:52;;;;;;;24.60;17.07;;;;;;;;;;4991419;28;20415;-55
2021/03/23 11:41:20;;;;;;;21.50;16.40;;;;;;;;;;4992026;28;20514;-54
2021/03/23 11:43:50;;;;;;;22.60;17.63;;;;;;;;;;5010291;28;20411;-54
2021/03/23 11:46:26;;;;;;;22.00;15.93;;;;;;;;;;5011224;28;20812;-53
2021/03/23 11:48:55;;;;;;;22.93;17.23;;;;;;;;;;5010697;28;20402;-54
2021/03/23 11:51:23;;;;;;;22.27;17.50;;;;;;;;;;5011049;28;20423;-54
2021/03/23 11:53:49;;;;;;;23.07;17.63;;;;;;;;;;5010905;28;20399;-53
2021/03/23 11:56:16;;;;;;;21.53;17.57;;;;;;;;;;5012211;28;20508;-54
2021/03/23 11:58:42;;;;;;;22.27;17.17;;;;;;;;;;5014979;28;20386;-54
2021/03/23 12:01:08;;;;;;;22.13;17.80;;;;;;;;;;5014960;28;20427;-54
2021/03/23 12:03:34;;;;;;;21.23;16.50;;;;;;;;;;5014985;28;20921;-54
2021/03/23 12:06:20;;;;;;;24.80;18.60;;;;;;;;;;5014850;28;20409;-54
2021/03/23 12:08:52;;;;;;;26.20;18.13;;;;;;;;;;5013119;28;20430;-54
2021/03/23 12:11:17;;;;;;;20.30;17.20;;;;;;;;;;5014753;28;20412;-53
2021/03/23 12:13:46;;;;;;;24.80;18.43;;;;;;;;;;5014627;28;20377;-54
2021/03/23 12:16:33;;;;;;;25.00;17.40;;;;;;;;;;5014763;28;20511;-54
2021/03/23 12:19:05;;;;;;;22.20;18.13;;;;;;;;;;5014349;28;20432;-54
2021/03/23 12:21:31;;;;;;;29.47;20.07;;;;;;;;;;5014601;28;20931;-54
2021/03/23 12:23:59;;;;;;;28.10;19.33;;;;;;;;;;5014470;28;20403;-54
2021/03/23 12:26:25;;;;;;;23.23;18.10;;;;;;;;;;5014486;28;20494;-54
2021/03/23 12:28:51;;;;;;;32.90;21.07;;;;;;;;;;5014115;28;20382;-53
2021/03/23 12:31:17;;;;;;;28.30;19.23;;;;;;;;;;5014358;28;20434;-53
2021/03/23 12:33:44;;;;;;;23.77;18.07;;;;;;;;;;5013343;28;20422;-53
2021/03/23 12:36:11;;;;;;;28.37;19.83;;;;;;;;;;5020298;28;20527;-54
2021/03/23 12:38:38;;;;;;;33.93;25.33;;;;;;;;;;5021709;28;20620;-54
2021/03/23 12:41:04;;;;;;;31.47;18.80;;;;;;;;;;5021101;28;20434;-53
2021/03/23 12:43:30;;;;;;;27.10;19.47;;;;;;;;;;5022020;28;20377;-54
2021/03/23 12:46:15;;;;;;;26.43;20.57;;;;;;;;;;5021017;28;20424;-55
2021/03/23 12:48:41;;;;;;;28.43;22.30;;;;;;;;;;5021360;28;20377;-55
2021/03/23 12:51:08;;;;;;;25.20;19.80;;;;;;;;;;5021505;28;20796;-54
2021/03/23 12:53:34;;;;;;;28.60;21.13;;;;;;;;;;5022527;28;20411;-54
2021/03/23 12:56:00;;;;;;;21.50;19.27;;;;;;;;;;5021659;28;20434;-54
2021/03/23 12:58:30;;;;;;;23.87;19.73;;;;;;;;;;5022076;28;20401;-55
2021/03/23 13:00:56;;;;;;;22.87;19.10;;;;;;;;;;5021694;28;21073;-54
2021/03/23 13:03:22;;;;;;;32.93;17.97;;;;;;;;;;5019428;28;20505;-53
2021/03/23 13:05:51;;;;;;;25.47;18.40;;;;;;;;;;5019671;28;20467;-53
2021/03/23 13:08:20;;;;;;;32.37;18.20;;;;;;;;;;5019954;28;20459;-55
2021/03/23 13:10:52;;;;;;;25.60;18.50;;;;;;;;;;5020855;28;20401;-55
2021/03/23 13:13:22;;;;;;;23.43;18.50;;;;;;;;;;5019981;28;20866;-55
2021/03/23 13:15:48;;;;;;;21.93;18.17;;;;;;;;;;5020609;28;20463;-54
2021/03/23 13:18:15;;;;;;;31.47;18.40;;;;;;;;;;5021266;28;20396;-54
2021/03/23 13:20:42;;;;;;;27.30;19.20;;;;;;;;;;5020555;28;20805;-55
2021/03/23 13:23:15;;;;;;;30.30;20.73;;;;;;;;;;5019109;28;20384;-55
2021/03/23 13:25:41;;;;;;;25.57;19.27;;;;;;;;;;5021123;28;20407;-53
2021/03/23 13:28:26;;;;;;;27.50;19.00;;;;;;;;;;5020801;28;20754;-54
2021/03/23 13:30:52;;;;;;;30.80;20.70;;;;;;;;;;5022138;28;20427;-54
2021/03/23 13:33:18;;;;;;;26.20;18.83;;;;;;;;;;5021601;28;20893;-54
2021/03/23 13:35:45;;;;;;;23.80;19.23;;;;;;;;;;5021806;28;20428;-52
2021/03/23 13:38:12;;;;;;;26.20;18.50;;;;;;;;;;5019822;28;20413;-53
2021/03/23 13:40:41;;;;;;;27.30;17.80;;;;;;;;;;5019297;28;20943;-54
2021/03/23 13:43:09;;;;;;;24.23;18.13;;;;;;;;;;5020379;28;20406;-54
2021/03/23 13:45:44;;;;;;;23.63;18.80;;;;;;;;;;5020082;28;21076;-53
2021/03/23 13:48:15;;;;;;;24.30;19.50;;;;;;;;;;5018603;28;20409;-54
2021/03/23 13:50:41;;;;;;;27.40;18.53;;;;;;;;;;5000841;28;20428;-53
2021/03/23 13:53:11;;;;;;;29.80;20.20;;;;;;;;;;4999546;28;20404;-53
2021/03/23 13:55:37;;;;;;;24.53;19.07;;;;;;;;;;5000784;28;20430;-53
2021/03/23 13:58:04;;;;;;;23.90;18.37;;;;;;;;;;5000167;28;20526;-53
2021/03/23 14:00:35;;;;;;;24.40;20.10;;;;;;;;;;5000353;28;20379;-54
2021/03/23 14:03:01;;;;;;;24.73;19.70;;;;;;;;;;5001395;28;20420;-52
2021/03/23 14:05:27;;;;;;;27.00;19.40;;;;;;;;;;5001485;28;20382;-53
2021/03/23 14:07:53;;;;;;;24.10;19.83;;;;;;;;;;4999726;28;20412;-53
2021/03/23 14:10:21;;;;;;;25.17;18.43;;;;;;;;;;5015125;28;20488;-53
2021/03/23 14:12:48;;;;;;;34.07;21.30;;;;;;;;;;5019970;28;20407;-53
2021/03/23 14:15:20;;;;;;;26.63;20.50;;;;;;;;;;5020361;28;20454;-53
2021/03/23 14:17:46;;;;;;;30.10;20.20;;;;;;;;;;5019317;28;20852;-53
2021/03/23 14:20:12;;;;;;;27.10;19.63;;;;;;;;;;5019430;28;20415;-53
2021/03/23 14:22:38;;;;;;;24.50;18.40;;;;;;;;;;5019816;28;20403;-52
2021/03/23 14:25:20;;;;;;;28.83;19.43;;;;;;;;;;5019636;28;20426;-52
2021/03/23 14:27:46;;;;;;;26.70;19.93;;;;;;;;;;5019774;28;20403;-53
2021/03/23 14:30:23;;;;;;;22.70;18.77;;;;;;;;;;5018835;28;20411;-53
2021/03/23 14:32:49;;;;;;;24.03;17.83;;;;;;;;;;5018862;28;20442;-51
2021/03/23 14:35:16;;;;;;;27.40;21.17;;;;;;;;;;5017718;28;20521;-52